sensor_id;sensor_type;location;lat;lon;timestamp;P1;durP1;ratioP1;P2;durP2;ratioP2
2622;SDS011;1321;48.690;9.022;2022-09-03T00:00:18;1.20;;;1.10;;
2622;SDS011;1321;48.690;9.022;2022-09-03T00:02:51;1.20;;;1.10;;
2622;SDS011;1321;48.690;9.022;2022-09-03T00:05:28;1.20;;;1.10;;
2622;SDS011;1321;48.690;9.022;2022-09-03T00:08:05;1.27;;;1.17;;
2622;SDS011;1321;48.690;9.022;2022-09-03T00:10:41;1.30;;;1.20;;
2622;SDS011;1321;48.690;9.022;2022-09-03T00:13:13;1.30;;;1.20;;
2622;SDS011;1321;48.690;9.022;2022-09-03T00:15:47;1.33;;;1.30;;
2622;SDS011;1321;48.690;9.022;2022-09-03T00:18:18;1.97;;;1.03;;
2622;SDS011;1321;48.690;9.022;2022-09-03T00:20:50;2.50;;;1.20;;
2622;SDS011;1321;48.690;9.022;2022-09-03T00:23:23;1.30;;;1.20;;
2622;SDS011;1321;48.690;9.022;2022-09-03T00:25:55;2.00;;;1.20;;
2622;SDS011;1321;48.690;9.022;2022-09-03T00:28:33;3.40;;;1.20;;
2622;SDS011;1321;48.690;9.022;2022-09-03T00:31:08;1.40;;;1.30;;
2622;SDS011;1321;48.690;9.022;2022-09-03T00:33:43;1.30;;;1.20;;
2622;SDS011;1321;48.690;9.022;2022-09-03T00:36:15;1.40;;;1.13;;
2622;SDS011;1321;48.690;9.022;2022-09-03T00:38:47;1.20;;;1.10;;
2622;SDS011;1321;48.690;9.022;2022-09-03T00:41:18;3.00;;;0.97;;
2622;SDS011;1321;48.690;9.022;2022-09-03T00:44:01;1.47;;;1.20;;
2622;SDS011;1321;48.690;9.022;2022-09-03T00:46:44;1.17;;;1.10;;
2622;SDS011;1321;48.690;9.022;2022-09-03T00:49:24;1.37;;;1.00;;
2622;SDS011;1321;48.690;9.022;2022-09-03T00:52:02;1.20;;;1.10;;
2622;SDS011;1321;48.690;9.022;2022-09-03T00:54:40;1.20;;;1.10;;
2622;SDS011;1321;48.690;9.022;2022-09-03T00:57:21;1.50;;;1.40;;
2622;SDS011;1321;48.690;9.022;2022-09-03T01:00:00;1.27;;;1.17;;
2622;SDS011;1321;48.690;9.022;2022-09-03T01:02:38;1.30;;;1.20;;
2622;SDS011;1321;48.690;9.022;2022-09-03T01:05:19;1.03;;;1.03;;
2622;SDS011;1321;48.690;9.022;2022-09-03T01:08:03;1.10;;;1.00;;
2622;SDS011;1321;48.690;9.022;2022-09-03T01:10:43;2.10;;;1.20;;
2622;SDS011;1321;48.690;9.022;2022-09-03T01:13:20;2.07;;;1.40;;
2622;SDS011;1321;48.690;9.022;2022-09-03T01:15:55;2.17;;;1.30;;
2622;SDS011;1321;48.690;9.022;2022-09-03T01:18:38;1.10;;;1.10;;
2622;SDS011;1321;48.690;9.022;2022-09-03T01:21:20;1.40;;;1.30;;
2622;SDS011;1321;48.690;9.022;2022-09-03T01:24:17;1.03;;;1.00;;
2622;SDS011;1321;48.690;9.022;2022-09-03T01:27:18;2.83;;;1.03;;
2622;SDS011;1321;48.690;9.022;2022-09-03T01:29:59;1.20;;;1.10;;
2622;SDS011;1321;48.690;9.022;2022-09-03T01:32:32;0.90;;;0.90;;
2622;SDS011;1321;48.690;9.022;2022-09-03T01:35:09;1.00;;;1.00;;
2622;SDS011;1321;48.690;9.022;2022-09-03T01:37:49;1.30;;;1.20;;
2622;SDS011;1321;48.690;9.022;2022-09-03T01:40:31;1.40;;;1.30;;
2622;SDS011;1321;48.690;9.022;2022-09-03T01:43:11;2.73;;;1.10;;
2622;SDS011;1321;48.690;9.022;2022-09-03T01:46:04;2.27;;;1.23;;
2622;SDS011;1321;48.690;9.022;2022-09-03T01:48:42;1.07;;;0.97;;
2622;SDS011;1321;48.690;9.022;2022-09-03T01:51:19;1.20;;;1.10;;
2622;SDS011;1321;48.690;9.022;2022-09-03T02:00:03;1.43;;;1.10;;
2622;SDS011;1321;48.690;9.022;2022-09-03T02:02:36;1.77;;;1.00;;
2622;SDS011;1321;48.690;9.022;2022-09-03T02:05:05;1.33;;;1.17;;
2622;SDS011;1321;48.690;9.022;2022-09-03T02:07:38;1.23;;;1.10;;
2622;SDS011;1321;48.690;9.022;2022-09-03T02:10:09;3.03;;;1.10;;
2622;SDS011;1321;48.690;9.022;2022-09-03T02:12:40;0.90;;;0.90;;
2622;SDS011;1321;48.690;9.022;2022-09-03T02:15:12;1.20;;;1.10;;
2622;SDS011;1321;48.690;9.022;2022-09-03T02:17:46;0.90;;;0.90;;
2622;SDS011;1321;48.690;9.022;2022-09-03T02:20:16;1.47;;;1.37;;
2622;SDS011;1321;48.690;9.022;2022-09-03T02:22:48;1.53;;;1.10;;
2622;SDS011;1321;48.690;9.022;2022-09-03T02:25:17;1.77;;;1.30;;
2622;SDS011;1321;48.690;9.022;2022-09-03T02:27:46;2.00;;;1.37;;
2622;SDS011;1321;48.690;9.022;2022-09-03T02:30:15;0.93;;;0.93;;
2622;SDS011;1321;48.690;9.022;2022-09-03T02:32:44;1.17;;;1.03;;
2622;SDS011;1321;48.690;9.022;2022-09-03T02:35:14;1.23;;;1.13;;
2622;SDS011;1321;48.690;9.022;2022-09-03T02:37:42;1.17;;;1.07;;
2622;SDS011;1321;48.690;9.022;2022-09-03T02:40:10;2.60;;;1.20;;
2622;SDS011;1321;48.690;9.022;2022-09-03T02:42:38;2.03;;;1.83;;
2622;SDS011;1321;48.690;9.022;2022-09-03T02:45:09;1.53;;;1.10;;
2622;SDS011;1321;48.690;9.022;2022-09-03T02:47:48;1.17;;;1.07;;
2622;SDS011;1321;48.690;9.022;2022-09-03T02:50:19;1.50;;;1.40;;
2622;SDS011;1321;48.690;9.022;2022-09-03T02:52:47;1.20;;;1.17;;
2622;SDS011;1321;48.690;9.022;2022-09-03T02:55:16;1.40;;;1.30;;
2622;SDS011;1321;48.690;9.022;2022-09-03T02:57:44;1.50;;;1.40;;
2622;SDS011;1321;48.690;9.022;2022-09-03T03:00:13;1.20;;;1.10;;
2622;SDS011;1321;48.690;9.022;2022-09-03T03:02:42;1.20;;;1.10;;
2622;SDS011;1321;48.690;9.022;2022-09-03T03:05:14;1.33;;;1.23;;
2622;SDS011;1321;48.690;9.022;2022-09-03T03:07:50;1.40;;;1.30;;
2622;SDS011;1321;48.690;9.022;2022-09-03T03:10:18;1.50;;;1.40;;
2622;SDS011;1321;48.690;9.022;2022-09-03T03:12:46;2.00;;;1.30;;
2622;SDS011;1321;48.690;9.022;2022-09-03T03:15:14;1.60;;;1.50;;
2622;SDS011;1321;48.690;9.022;2022-09-03T03:17:44;1.63;;;1.10;;
2622;SDS011;1321;48.690;9.022;2022-09-03T03:20:14;1.40;;;1.30;;
2622;SDS011;1321;48.690;9.022;2022-09-03T03:22:42;1.60;;;1.50;;
2622;SDS011;1321;48.690;9.022;2022-09-03T03:25:10;1.67;;;1.57;;
2622;SDS011;1321;48.690;9.022;2022-09-03T03:27:38;2.00;;;1.70;;
2622;SDS011;1321;48.690;9.022;2022-09-03T03:30:08;4.23;;;1.53;;
2622;SDS011;1321;48.690;9.022;2022-09-03T03:32:37;1.50;;;1.40;;
2622;SDS011;1321;48.690;9.022;2022-09-03T03:35:06;2.43;;;1.40;;
2622;SDS011;1321;48.690;9.022;2022-09-03T03:37:38;1.87;;;1.70;;
2622;SDS011;1321;48.690;9.022;2022-09-03T03:40:07;1.50;;;1.40;;
2622;SDS011;1321;48.690;9.022;2022-09-03T03:42:36;1.70;;;1.60;;
2622;SDS011;1321;48.690;9.022;2022-09-03T03:45:05;1.83;;;1.40;;
2622;SDS011;1321;48.690;9.022;2022-09-03T03:47:35;1.67;;;1.57;;
2622;SDS011;1321;48.690;9.022;2022-09-03T03:50:04;2.30;;;1.57;;
2622;SDS011;1321;48.690;9.022;2022-09-03T03:52:33;1.70;;;1.60;;
2622;SDS011;1321;48.690;9.022;2022-09-03T03:55:02;1.50;;;1.30;;
2622;SDS011;1321;48.690;9.022;2022-09-03T03:57:32;1.40;;;1.30;;
2622;SDS011;1321;48.690;9.022;2022-09-03T04:00:00;1.77;;;1.67;;
2622;SDS011;1321;48.690;9.022;2022-09-03T04:02:28;1.73;;;1.47;;
2622;SDS011;1321;48.690;9.022;2022-09-03T04:05:04;2.03;;;1.60;;
2622;SDS011;1321;48.690;9.022;2022-09-03T04:07:33;1.90;;;1.73;;
2622;SDS011;1321;48.690;9.022;2022-09-03T04:10:03;2.70;;;1.40;;
2622;SDS011;1321;48.690;9.022;2022-09-03T04:12:32;1.83;;;1.73;;
2622;SDS011;1321;48.690;9.022;2022-09-03T04:15:00;1.60;;;1.50;;
2622;SDS011;1321;48.690;9.022;2022-09-03T04:17:28;2.77;;;1.57;;
2622;SDS011;1321;48.690;9.022;2022-09-03T04:19:56;1.80;;;1.70;;
2622;SDS011;1321;48.690;9.022;2022-09-03T04:22:26;1.73;;;1.63;;
2622;SDS011;1321;48.690;9.022;2022-09-03T04:24:55;5.37;;;1.93;;
2622;SDS011;1321;48.690;9.022;2022-09-03T04:27:25;2.03;;;1.83;;
2622;SDS011;1321;48.690;9.022;2022-09-03T04:29:53;1.90;;;1.80;;
2622;SDS011;1321;48.690;9.022;2022-09-03T04:32:21;1.80;;;1.70;;
2622;SDS011;1321;48.690;9.022;2022-09-03T04:35:07;1.97;;;1.70;;
2622;SDS011;1321;48.690;9.022;2022-09-03T04:37:36;2.00;;;1.80;;
2622;SDS011;1321;48.690;9.022;2022-09-03T04:40:04;2.50;;;2.30;;
2622;SDS011;1321;48.690;9.022;2022-09-03T04:42:34;1.97;;;1.87;;
2622;SDS011;1321;48.690;9.022;2022-09-03T04:45:03;2.10;;;1.80;;
2622;SDS011;1321;48.690;9.022;2022-09-03T04:47:31;2.20;;;2.00;;
2622;SDS011;1321;48.690;9.022;2022-09-03T04:50:02;2.10;;;2.00;;
2622;SDS011;1321;48.690;9.022;2022-09-03T04:52:30;1.50;;;1.40;;
2622;SDS011;1321;48.690;9.022;2022-09-03T04:54:58;2.30;;;1.90;;
2622;SDS011;1321;48.690;9.022;2022-09-03T04:57:28;1.97;;;1.87;;
2622;SDS011;1321;48.690;9.022;2022-09-03T05:00:01;2.00;;;1.90;;
2622;SDS011;1321;48.690;9.022;2022-09-03T05:02:29;2.17;;;1.97;;
2622;SDS011;1321;48.690;9.022;2022-09-03T05:04:58;2.77;;;2.47;;
2622;SDS011;1321;48.690;9.022;2022-09-03T05:07:26;2.60;;;1.97;;
2622;SDS011;1321;48.690;9.022;2022-09-03T05:10:04;2.10;;;1.90;;
2622;SDS011;1321;48.690;9.022;2022-09-03T05:12:33;2.70;;;2.40;;
2622;SDS011;1321;48.690;9.022;2022-09-03T05:15:03;2.30;;;2.10;;
2622;SDS011;1321;48.690;9.022;2022-09-03T05:17:32;1.93;;;1.83;;
2622;SDS011;1321;48.690;9.022;2022-09-03T05:20:03;2.03;;;1.83;;
2622;SDS011;1321;48.690;9.022;2022-09-03T05:22:32;2.70;;;2.43;;
2622;SDS011;1321;48.690;9.022;2022-09-03T05:25:00;2.20;;;2.10;;
2622;SDS011;1321;48.690;9.022;2022-09-03T05:27:29;2.60;;;2.40;;
2622;SDS011;1321;48.690;9.022;2022-09-03T05:29:58;2.30;;;2.10;;
2622;SDS011;1321;48.690;9.022;2022-09-03T05:32:30;2.50;;;2.30;;
2622;SDS011;1321;48.690;9.022;2022-09-03T05:34:58;2.43;;;2.33;;
2622;SDS011;1321;48.690;9.022;2022-09-03T05:37:26;1.93;;;1.80;;
2622;SDS011;1321;48.690;9.022;2022-09-03T05:39:54;2.10;;;2.00;;
2622;SDS011;1321;48.690;9.022;2022-09-03T05:42:22;2.27;;;2.07;;
2622;SDS011;1321;48.690;9.022;2022-09-03T05:44:51;2.53;;;1.93;;
2622;SDS011;1321;48.690;9.022;2022-09-03T05:47:20;2.50;;;2.30;;
2622;SDS011;1321;48.690;9.022;2022-09-03T05:49:49;2.60;;;2.33;;
2622;SDS011;1321;48.690;9.022;2022-09-03T05:52:17;3.17;;;2.90;;
2622;SDS011;1321;48.690;9.022;2022-09-03T05:54:46;2.77;;;2.47;;
2622;SDS011;1321;48.690;9.022;2022-09-03T05:57:15;3.03;;;2.70;;
2622;SDS011;1321;48.690;9.022;2022-09-03T05:59:43;2.73;;;2.53;;
2622;SDS011;1321;48.690;9.022;2022-09-03T06:02:11;2.20;;;2.10;;
2622;SDS011;1321;48.690;9.022;2022-09-03T06:04:39;2.47;;;2.20;;
2622;SDS011;1321;48.690;9.022;2022-09-03T06:07:09;2.20;;;2.00;;
2622;SDS011;1321;48.690;9.022;2022-09-03T06:09:37;2.80;;;2.60;;
2622;SDS011;1321;48.690;9.022;2022-09-03T06:12:05;2.17;;;1.97;;
2622;SDS011;1321;48.690;9.022;2022-09-03T06:14:34;2.10;;;2.00;;
2622;SDS011;1321;48.690;9.022;2022-09-03T06:17:02;2.27;;;2.17;;
2622;SDS011;1321;48.690;9.022;2022-09-03T06:19:30;2.93;;;2.73;;
2622;SDS011;1321;48.690;9.022;2022-09-03T06:21:58;2.47;;;2.27;;
2622;SDS011;1321;48.690;9.022;2022-09-03T06:24:28;2.87;;;2.60;;
2622;SDS011;1321;48.690;9.022;2022-09-03T06:26:58;2.33;;;1.90;;
2622;SDS011;1321;48.690;9.022;2022-09-03T06:29:28;2.60;;;2.40;;
2622;SDS011;1321;48.690;9.022;2022-09-03T06:31:56;3.07;;;2.77;;
2622;SDS011;1321;48.690;9.022;2022-09-03T06:34:24;2.83;;;2.63;;
2622;SDS011;1321;48.690;9.022;2022-09-03T06:36:53;2.97;;;2.77;;
2622;SDS011;1321;48.690;9.022;2022-09-03T06:39:22;2.30;;;2.20;;
2622;SDS011;1321;48.690;9.022;2022-09-03T06:41:52;2.30;;;2.20;;
2622;SDS011;1321;48.690;9.022;2022-09-03T06:44:20;2.70;;;2.50;;
2622;SDS011;1321;48.690;9.022;2022-09-03T06:46:48;2.73;;;2.53;;
2622;SDS011;1321;48.690;9.022;2022-09-03T06:49:18;2.50;;;2.40;;
2622;SDS011;1321;48.690;9.022;2022-09-03T06:51:47;4.13;;;2.87;;
2622;SDS011;1321;48.690;9.022;2022-09-03T06:54:15;2.83;;;2.63;;
2622;SDS011;1321;48.690;9.022;2022-09-03T06:56:43;2.10;;;2.00;;
2622;SDS011;1321;48.690;9.022;2022-09-03T06:59:13;2.17;;;2.07;;
2622;SDS011;1321;48.690;9.022;2022-09-03T07:01:42;2.60;;;2.40;;
2622;SDS011;1321;48.690;9.022;2022-09-03T07:04:12;2.60;;;2.50;;
2622;SDS011;1321;48.690;9.022;2022-09-03T07:06:44;2.30;;;2.10;;
2622;SDS011;1321;48.690;9.022;2022-09-03T07:09:12;2.73;;;2.53;;
2622;SDS011;1321;48.690;9.022;2022-09-03T07:11:43;3.13;;;2.57;;
2622;SDS011;1321;48.690;9.022;2022-09-03T07:14:15;2.77;;;2.57;;
2622;SDS011;1321;48.690;9.022;2022-09-03T07:16:45;2.43;;;2.23;;
2622;SDS011;1321;48.690;9.022;2022-09-03T07:19:14;2.53;;;2.33;;
2622;SDS011;1321;48.690;9.022;2022-09-03T07:21:43;2.90;;;2.70;;
2622;SDS011;1321;48.690;9.022;2022-09-03T07:24:16;2.17;;;1.97;;
2622;SDS011;1321;48.690;9.022;2022-09-03T07:26:47;2.67;;;2.47;;
2622;SDS011;1321;48.690;9.022;2022-09-03T07:29:17;1.60;;;1.50;;
2622;SDS011;1321;48.690;9.022;2022-09-03T07:31:47;2.40;;;2.20;;
2622;SDS011;1321;48.690;9.022;2022-09-03T07:34:18;3.33;;;2.60;;
2622;SDS011;1321;48.690;9.022;2022-09-03T07:36:50;2.40;;;2.20;;
2622;SDS011;1321;48.690;9.022;2022-09-03T07:39:19;2.30;;;2.10;;
2622;SDS011;1321;48.690;9.022;2022-09-03T07:41:47;2.50;;;2.30;;
2622;SDS011;1321;48.690;9.022;2022-09-03T07:44:17;2.27;;;2.07;;
2622;SDS011;1321;48.690;9.022;2022-09-03T07:46:46;2.33;;;2.13;;
2622;SDS011;1321;48.690;9.022;2022-09-03T07:49:16;2.17;;;1.97;;
2622;SDS011;1321;48.690;9.022;2022-09-03T07:51:45;3.00;;;2.77;;
2622;SDS011;1321;48.690;9.022;2022-09-03T07:54:16;1.93;;;1.83;;
2622;SDS011;1321;48.690;9.022;2022-09-03T07:56:45;2.87;;;2.67;;
2622;SDS011;1321;48.690;9.022;2022-09-03T07:59:14;2.70;;;2.50;;
2622;SDS011;1321;48.690;9.022;2022-09-03T08:01:43;3.00;;;2.80;;
2622;SDS011;1321;48.690;9.022;2022-09-03T08:04:11;2.47;;;2.27;;
2622;SDS011;1321;48.690;9.022;2022-09-03T08:06:40;2.00;;;1.90;;
2622;SDS011;1321;48.690;9.022;2022-09-03T08:09:09;1.93;;;1.83;;
2622;SDS011;1321;48.690;9.022;2022-09-03T08:11:39;1.87;;;1.77;;
2622;SDS011;1321;48.690;9.022;2022-09-03T08:14:09;1.80;;;1.70;;
2622;SDS011;1321;48.690;9.022;2022-09-03T08:16:39;1.93;;;1.73;;
2622;SDS011;1321;48.690;9.022;2022-09-03T08:19:09;2.30;;;2.10;;
2622;SDS011;1321;48.690;9.022;2022-09-03T08:21:38;3.97;;;2.47;;
2622;SDS011;1321;48.690;9.022;2022-09-03T08:24:08;2.03;;;1.93;;
2622;SDS011;1321;48.690;9.022;2022-09-03T08:26:38;1.80;;;1.70;;
2622;SDS011;1321;48.690;9.022;2022-09-03T08:29:08;2.00;;;1.90;;
2622;SDS011;1321;48.690;9.022;2022-09-03T08:31:36;3.63;;;2.37;;
2622;SDS011;1321;48.690;9.022;2022-09-03T08:34:05;2.17;;;2.07;;
2622;SDS011;1321;48.690;9.022;2022-09-03T08:36:37;2.23;;;2.03;;
2622;SDS011;1321;48.690;9.022;2022-09-03T08:39:07;3.63;;;3.00;;
2622;SDS011;1321;48.690;9.022;2022-09-03T08:41:40;2.23;;;2.10;;
2622;SDS011;1321;48.690;9.022;2022-09-03T08:44:30;1.83;;;1.73;;
2622;SDS011;1321;48.690;9.022;2022-09-03T08:47:06;1.70;;;1.60;;
2622;SDS011;1321;48.690;9.022;2022-09-03T08:49:40;1.70;;;1.60;;
2622;SDS011;1321;48.690;9.022;2022-09-03T08:52:20;3.87;;;2.03;;
2622;SDS011;1321;48.690;9.022;2022-09-03T08:54:54;2.53;;;1.90;;
2622;SDS011;1321;48.690;9.022;2022-09-03T08:57:28;1.60;;;1.50;;
2622;SDS011;1321;48.690;9.022;2022-09-03T09:00:04;1.80;;;1.70;;
2622;SDS011;1321;48.690;9.022;2022-09-03T09:02:34;3.43;;;1.60;;
2622;SDS011;1321;48.690;9.022;2022-09-03T09:05:14;1.70;;;1.60;;
2622;SDS011;1321;48.690;9.022;2022-09-03T09:07:52;1.50;;;1.40;;
2622;SDS011;1321;48.690;9.022;2022-09-03T09:10:30;1.70;;;1.50;;
2622;SDS011;1321;48.690;9.022;2022-09-03T09:13:07;1.63;;;1.53;;
2622;SDS011;1321;48.690;9.022;2022-09-03T09:15:45;2.23;;;2.13;;
2622;SDS011;1321;48.690;9.022;2022-09-03T09:18:22;1.80;;;1.70;;
2622;SDS011;1321;48.690;9.022;2022-09-03T09:21:01;1.60;;;1.50;;
2622;SDS011;1321;48.690;9.022;2022-09-03T09:23:39;1.77;;;1.67;;
2622;SDS011;1321;48.690;9.022;2022-09-03T09:26:12;2.10;;;1.93;;
2622;SDS011;1321;48.690;9.022;2022-09-03T09:28:43;2.07;;;1.77;;
2622;SDS011;1321;48.690;9.022;2022-09-03T09:31:16;2.57;;;1.53;;
2622;SDS011;1321;48.690;9.022;2022-09-03T09:33:45;1.67;;;1.57;;
2622;SDS011;1321;48.690;9.022;2022-09-03T09:36:14;2.10;;;1.67;;
2622;SDS011;1321;48.690;9.022;2022-09-03T09:38:46;2.33;;;1.90;;
2622;SDS011;1321;48.690;9.022;2022-09-03T09:41:15;1.60;;;1.50;;
2622;SDS011;1321;48.690;9.022;2022-09-03T09:43:45;1.70;;;1.60;;
2622;SDS011;1321;48.690;9.022;2022-09-03T09:46:15;2.13;;;1.97;;
2622;SDS011;1321;48.690;9.022;2022-09-03T09:48:48;2.07;;;1.97;;
2622;SDS011;1321;48.690;9.022;2022-09-03T09:51:19;1.70;;;1.60;;
2622;SDS011;1321;48.690;9.022;2022-09-03T09:54:00;1.80;;;1.60;;
2622;SDS011;1321;48.690;9.022;2022-09-03T09:56:30;1.90;;;1.77;;
2622;SDS011;1321;48.690;9.022;2022-09-03T09:59:02;1.83;;;1.70;;
2622;SDS011;1321;48.690;9.022;2022-09-03T10:01:31;1.70;;;1.60;;
2622;SDS011;1321;48.690;9.022;2022-09-03T10:04:07;1.60;;;1.50;;
2622;SDS011;1321;48.690;9.022;2022-09-03T10:06:37;1.60;;;1.50;;
2622;SDS011;1321;48.690;9.022;2022-09-03T10:09:24;1.90;;;1.80;;
2622;SDS011;1321;48.690;9.022;2022-09-03T10:12:01;1.83;;;1.73;;
2622;SDS011;1321;48.690;9.022;2022-09-03T10:14:41;2.23;;;1.83;;
2622;SDS011;1321;48.690;9.022;2022-09-03T10:17:15;1.80;;;1.70;;
2622;SDS011;1321;48.690;9.022;2022-09-03T10:19:57;1.90;;;1.80;;
2622;SDS011;1321;48.690;9.022;2022-09-03T10:22:50;2.27;;;2.07;;
2622;SDS011;1321;48.690;9.022;2022-09-03T10:25:25;2.57;;;1.97;;
2622;SDS011;1321;48.690;9.022;2022-09-03T10:27:58;2.00;;;1.90;;
2622;SDS011;1321;48.690;9.022;2022-09-03T10:30:27;1.80;;;1.70;;
2622;SDS011;1321;48.690;9.022;2022-09-03T10:33:07;1.83;;;1.70;;
2622;SDS011;1321;48.690;9.022;2022-09-03T10:35:42;2.03;;;1.90;;
2622;SDS011;1321;48.690;9.022;2022-09-03T10:38:16;2.73;;;1.87;;
2622;SDS011;1321;48.690;9.022;2022-09-03T10:40:50;2.17;;;1.97;;
2622;SDS011;1321;48.690;9.022;2022-09-03T10:43:35;2.00;;;1.83;;
2622;SDS011;1321;48.690;9.022;2022-09-03T10:46:31;1.80;;;1.70;;
2622;SDS011;1321;48.690;9.022;2022-09-03T10:49:16;3.63;;;2.23;;
2622;SDS011;1321;48.690;9.022;2022-09-03T10:51:57;3.00;;;2.00;;
2622;SDS011;1321;48.690;9.022;2022-09-03T10:54:32;3.80;;;2.80;;
2622;SDS011;1321;48.690;9.022;2022-09-03T10:57:15;2.40;;;2.20;;
2622;SDS011;1321;48.690;9.022;2022-09-03T10:59:58;3.57;;;2.03;;
2622;SDS011;1321;48.690;9.022;2022-09-03T11:02:39;3.37;;;1.90;;
2622;SDS011;1321;48.690;9.022;2022-09-03T11:05:27;1.90;;;1.80;;
2622;SDS011;1321;48.690;9.022;2022-09-03T11:07:58;2.00;;;1.90;;
2622;SDS011;1321;48.690;9.022;2022-09-03T11:10:32;1.73;;;1.63;;
2622;SDS011;1321;48.690;9.022;2022-09-03T11:13:09;2.10;;;2.00;;
2622;SDS011;1321;48.690;9.022;2022-09-03T11:15:41;2.57;;;1.80;;
2622;SDS011;1321;48.690;9.022;2022-09-03T11:18:16;2.43;;;2.07;;
2622;SDS011;1321;48.690;9.022;2022-09-03T11:20:49;2.13;;;2.00;;
2622;SDS011;1321;48.690;9.022;2022-09-03T11:23:23;2.30;;;2.20;;
2622;SDS011;1321;48.690;9.022;2022-09-03T11:25:55;2.50;;;2.30;;
2622;SDS011;1321;48.690;9.022;2022-09-03T11:28:33;2.00;;;1.90;;
2622;SDS011;1321;48.690;9.022;2022-09-03T11:31:19;2.57;;;2.47;;
2622;SDS011;1321;48.690;9.022;2022-09-03T11:33:53;2.20;;;2.10;;
2622;SDS011;1321;48.690;9.022;2022-09-03T11:36:28;2.43;;;2.33;;
2622;SDS011;1321;48.690;9.022;2022-09-03T11:38:58;2.50;;;2.13;;
2622;SDS011;1321;48.690;9.022;2022-09-03T11:41:29;2.20;;;2.00;;
2622;SDS011;1321;48.690;9.022;2022-09-03T11:44:11;2.00;;;1.90;;
2622;SDS011;1321;48.690;9.022;2022-09-03T11:46:52;2.50;;;2.40;;
2622;SDS011;1321;48.690;9.022;2022-09-03T11:49:26;2.17;;;2.07;;
2622;SDS011;1321;48.690;9.022;2022-09-03T11:51:57;2.57;;;2.40;;
2622;SDS011;1321;48.690;9.022;2022-09-03T11:54:30;2.60;;;2.23;;
2622;SDS011;1321;48.690;9.022;2022-09-03T11:57:05;4.87;;;2.47;;
2622;SDS011;1321;48.690;9.022;2022-09-03T11:59:40;2.20;;;2.10;;
2622;SDS011;1321;48.690;9.022;2022-09-03T12:02:13;3.47;;;2.27;;
2622;SDS011;1321;48.690;9.022;2022-09-03T12:04:56;3.20;;;1.80;;
2622;SDS011;1321;48.690;9.022;2022-09-03T12:07:40;3.50;;;1.77;;
2622;SDS011;1321;48.690;9.022;2022-09-03T12:10:16;3.43;;;1.43;;
2622;SDS011;1321;48.690;9.022;2022-09-03T12:12:57;3.40;;;1.80;;
2622;SDS011;1321;48.690;9.022;2022-09-03T12:15:44;2.53;;;1.50;;
2622;SDS011;1321;48.690;9.022;2022-09-03T12:18:26;1.80;;;1.40;;
2622;SDS011;1321;48.690;9.022;2022-09-03T12:21:01;3.40;;;1.00;;
2622;SDS011;1321;48.690;9.022;2022-09-03T12:23:31;1.60;;;1.10;;
2622;SDS011;1321;48.690;9.022;2022-09-03T12:26:02;1.10;;;1.00;;
2622;SDS011;1321;48.690;9.022;2022-09-03T12:28:34;3.10;;;1.00;;
2622;SDS011;1321;48.690;9.022;2022-09-03T12:31:13;1.20;;;1.10;;
2622;SDS011;1321;48.690;9.022;2022-09-03T12:33:55;1.73;;;1.10;;
2622;SDS011;1321;48.690;9.022;2022-09-03T12:36:25;1.20;;;1.10;;
2622;SDS011;1321;48.690;9.022;2022-09-03T12:39:06;1.20;;;1.10;;
2622;SDS011;1321;48.690;9.022;2022-09-03T12:41:45;2.50;;;1.20;;
2622;SDS011;1321;48.690;9.022;2022-09-03T12:44:23;3.27;;;1.23;;
2622;SDS011;1321;48.690;9.022;2022-09-03T12:47:00;0.93;;;0.83;;
2622;SDS011;1321;48.690;9.022;2022-09-03T12:49:51;0.70;;;0.70;;
2622;SDS011;1321;48.690;9.022;2022-09-03T12:52:24;1.13;;;1.00;;
2622;SDS011;1321;48.690;9.022;2022-09-03T12:54:55;0.90;;;0.90;;
2622;SDS011;1321;48.690;9.022;2022-09-03T12:57:27;1.13;;;1.03;;
2622;SDS011;1321;48.690;9.022;2022-09-03T13:00:03;1.00;;;1.00;;
2622;SDS011;1321;48.690;9.022;2022-09-03T13:02:36;1.17;;;1.07;;
2622;SDS011;1321;48.690;9.022;2022-09-03T13:05:12;2.00;;;0.90;;
2622;SDS011;1321;48.690;9.022;2022-09-03T13:07:44;3.47;;;1.17;;
2622;SDS011;1321;48.690;9.022;2022-09-03T13:10:21;2.20;;;0.90;;
2622;SDS011;1321;48.690;9.022;2022-09-03T13:12:56;0.97;;;0.80;;
2622;SDS011;1321;48.690;9.022;2022-09-03T13:15:26;0.80;;;0.80;;
2622;SDS011;1321;48.690;9.022;2022-09-03T13:18:09;1.37;;;0.80;;
2622;SDS011;1321;48.690;9.022;2022-09-03T13:20:51;1.27;;;0.70;;
2622;SDS011;1321;48.690;9.022;2022-09-03T13:26:26;0.97;;;0.80;;
2622;SDS011;1321;48.690;9.022;2022-09-03T13:29:17;0.80;;;0.80;;
2622;SDS011;1321;48.690;9.022;2022-09-03T13:31:54;1.00;;;0.90;;
2622;SDS011;1321;48.690;9.022;2022-09-03T13:34:33;0.90;;;0.73;;
2622;SDS011;1321;48.690;9.022;2022-09-03T13:37:10;1.13;;;1.03;;
2622;SDS011;1321;48.690;9.022;2022-09-03T13:39:51;1.20;;;0.90;;
2622;SDS011;1321;48.690;9.022;2022-09-03T13:42:25;1.90;;;0.90;;
2622;SDS011;1321;48.690;9.022;2022-09-03T13:45:00;1.00;;;0.90;;
2622;SDS011;1321;48.690;9.022;2022-09-03T13:47:38;0.90;;;0.90;;
2622;SDS011;1321;48.690;9.022;2022-09-03T13:50:34;1.70;;;1.00;;
2622;SDS011;1321;48.690;9.022;2022-09-03T13:53:08;1.37;;;1.10;;
2622;SDS011;1321;48.690;9.022;2022-09-03T13:55:48;0.90;;;0.90;;
2622;SDS011;1321;48.690;9.022;2022-09-03T13:58:21;1.30;;;1.10;;
2622;SDS011;1321;48.690;9.022;2022-09-03T14:01:03;1.30;;;1.00;;
2622;SDS011;1321;48.690;9.022;2022-09-03T14:03:42;1.20;;;1.10;;
2622;SDS011;1321;48.690;9.022;2022-09-03T14:06:19;1.30;;;1.10;;
2622;SDS011;1321;48.690;9.022;2022-09-03T14:08:58;0.93;;;0.80;;
2622;SDS011;1321;48.690;9.022;2022-09-03T14:11:34;1.53;;;0.90;;
2622;SDS011;1321;48.690;9.022;2022-09-03T14:14:15;1.00;;;0.90;;
2622;SDS011;1321;48.690;9.022;2022-09-03T14:16:55;2.00;;;1.00;;
2622;SDS011;1321;48.690;9.022;2022-09-03T14:19:31;0.90;;;0.90;;
2622;SDS011;1321;48.690;9.022;2022-09-03T14:22:07;1.00;;;1.00;;
2622;SDS011;1321;48.690;9.022;2022-09-03T14:24:48;0.90;;;0.90;;
2622;SDS011;1321;48.690;9.022;2022-09-03T14:27:23;2.40;;;0.93;;
2622;SDS011;1321;48.690;9.022;2022-09-03T14:29:57;0.80;;;0.80;;
2622;SDS011;1321;48.690;9.022;2022-09-03T14:32:28;1.00;;;0.80;;
2622;SDS011;1321;48.690;9.022;2022-09-03T14:35:15;1.00;;;0.90;;
2622;SDS011;1321;48.690;9.022;2022-09-03T14:38:14;1.60;;;1.00;;
2622;SDS011;1321;48.690;9.022;2022-09-03T14:41:03;1.07;;;1.07;;
2622;SDS011;1321;48.690;9.022;2022-09-03T14:46:30;0.80;;;0.80;;
2622;SDS011;1321;48.690;9.022;2022-09-03T14:52:15;1.33;;;0.97;;
2622;SDS011;1321;48.690;9.022;2022-09-03T14:55:08;1.37;;;1.10;;
2622;SDS011;1321;48.690;9.022;2022-09-03T14:57:59;1.90;;;0.97;;
2622;SDS011;1321;48.690;9.022;2022-09-03T15:00:41;1.00;;;0.90;;
2622;SDS011;1321;48.690;9.022;2022-09-03T15:03:26;1.07;;;0.97;;
2622;SDS011;1321;48.690;9.022;2022-09-03T15:06:18;1.20;;;1.10;;
2622;SDS011;1321;48.690;9.022;2022-09-03T15:09:06;0.90;;;0.80;;
2622;SDS011;1321;48.690;9.022;2022-09-03T15:11:46;0.80;;;0.80;;
2622;SDS011;1321;48.690;9.022;2022-09-03T15:14:19;1.10;;;1.00;;
2622;SDS011;1321;48.690;9.022;2022-09-03T15:16:55;2.07;;;1.00;;
2622;SDS011;1321;48.690;9.022;2022-09-03T15:19:39;1.83;;;0.87;;
2622;SDS011;1321;48.690;9.022;2022-09-03T15:22:20;2.50;;;1.20;;
2622;SDS011;1321;48.690;9.022;2022-09-03T15:25:02;1.13;;;1.03;;
2622;SDS011;1321;48.690;9.022;2022-09-03T15:27:50;2.20;;;0.97;;
2622;SDS011;1321;48.690;9.022;2022-09-03T15:30:33;1.13;;;1.03;;
2622;SDS011;1321;48.690;9.022;2022-09-03T15:33:09;1.40;;;1.20;;
2622;SDS011;1321;48.690;9.022;2022-09-03T15:35:58;1.30;;;1.20;;
2622;SDS011;1321;48.690;9.022;2022-09-03T15:38:38;1.00;;;1.00;;
2622;SDS011;1321;48.690;9.022;2022-09-03T15:41:16;0.80;;;0.77;;
2622;SDS011;1321;48.690;9.022;2022-09-03T15:44:02;1.20;;;1.10;;
2622;SDS011;1321;48.690;9.022;2022-09-03T15:46:47;1.57;;;1.30;;
2622;SDS011;1321;48.690;9.022;2022-09-03T15:49:26;1.47;;;1.20;;
2622;SDS011;1321;48.690;9.022;2022-09-03T15:52:17;1.37;;;0.90;;
2622;SDS011;1321;48.690;9.022;2022-09-03T15:54:55;1.40;;;1.30;;
2622;SDS011;1321;48.690;9.022;2022-09-03T15:57:30;1.07;;;1.07;;
2622;SDS011;1321;48.690;9.022;2022-09-03T16:00:08;2.00;;;0.90;;
2622;SDS011;1321;48.690;9.022;2022-09-03T16:02:41;1.97;;;1.30;;
2622;SDS011;1321;48.690;9.022;2022-09-03T16:05:14;1.20;;;1.10;;
2622;SDS011;1321;48.690;9.022;2022-09-03T16:07:48;1.73;;;1.20;;
2622;SDS011;1321;48.690;9.022;2022-09-03T16:10:40;1.33;;;1.23;;
2622;SDS011;1321;48.690;9.022;2022-09-03T16:13:23;5.63;;;5.37;;